Time,TemperatureF,DewpointF,PressureIn,WindDirection,WindDirectionDegrees,WindSpeedMPH,WindSpeedGustMPH,Humidity,HourlyPrecipIn,Conditions,Clouds,dailyrainin,SoftwareType,DateUTC
2013-01-13 00:05:00,55.2,54.4,29.70,NNE,27,10.0,21.0,97,0.10,,,0.01,Wunderground v.1.15,2013-01-13 05:05:00,
2013-01-13 00:10:00,55.3,54.5,29.69,North,360,9.0,9.0,97,0.15,,,0.02,Wunderground v.1.15,2013-01-13 05:10:00,
2013-01-13 00:15:00,55.2,54.4,29.70,North,5,8.0,21.0,97,0.56,,,0.04,Wunderground v.1.15,2013-01-13 05:15:00,
2013-01-13 00:20:00,55.4,54.6,29.70,North,5,6.0,6.0,97,0.65,,,0.14,Wunderground v.1.15,2013-01-13 05:20:00,
2013-01-13 00:25:00,55.3,54.5,29.71,NNW,336,5.0,7.0,97,0.35,,,0.20,Wunderground v.1.15,2013-01-13 05:25:00,
2013-01-13 00:30:00,55.0,54.2,29.70,NNW,338,6.0,21.0,97,0.12,,,0.21,Wunderground v.1.15,2013-01-13 05:30:00,
2013-01-13 00:35:00,55.0,54.2,29.69,North,360,7.0,21.0,97,0.06,,,0.21,Wunderground v.1.15,2013-01-13 05:35:00,
2013-01-13 00:45:00,54.7,53.9,29.69,North,360,8.0,21.0,97,0.00,,,0.21,Wunderground v.1.15,2013-01-13 05:45:00,
2013-01-13 00:50:00,54.3,53.5,29.69,North,355,9.0,21.0,97,0.00,,,0.21,Wunderground v.1.15,2013-01-13 05:50:00,
2013-01-13 00:55:00,54.0,53.2,29.68,North,5,11.0,21.0,97,0.00,,,0.21,Wunderground v.1.15,2013-01-13 05:55:00,
2013-01-13 01:00:00,53.9,53.1,29.68,North,350,12.0,21.0,97,0.00,,,0.22,Wunderground v.1.15,2013-01-13 06:00:00,
2013-01-13 01:05:00,53.7,52.9,29.68,North,9,12.0,21.0,97,0.09,,,0.23,Wunderground v.1.15,2013-01-13 06:05:00,
2013-01-13 01:15:00,53.5,52.7,29.67,NNE,22,12.0,18.0,97,0.24,,,0.27,Wunderground v.1.15,2013-01-13 06:15:00,
2013-01-13 01:20:00,53.5,52.7,29.66,NNE,23,14.0,21.0,97,0.20,,,0.28,Wunderground v.1.15,2013-01-13 06:20:00,
2013-01-13 01:25:00,53.3,52.5,29.65,NNE,23,17.0,21.0,97,0.17,,,0.30,Wunderground v.1.15,2013-01-13 06:25:00,
2013-01-13 01:30:00,53.3,52.5,29.66,NNE,14,16.0,21.0,97,0.95,,,0.33,Wunderground v.1.15,2013-01-13 06:30:00,
2013-01-13 01:35:00,53.3,52.5,29.65,NNE,16,16.0,21.0,97,0.24,,,0.35,Wunderground v.1.15,2013-01-13 06:35:00,
2013-01-13 01:40:00,53.4,52.6,29.65,NNE,19,18.0,18.0,97,0.31,,,0.38,Wunderground v.1.15,2013-01-13 06:40:00,
2013-01-13 01:50:00,53.5,52.7,29.70,NNW,346,18.0,26.0,97,2.06,,,0.51,Wunderground v.1.15,2013-01-13 06:50:00,
2013-01-13 01:55:00,53.7,52.9,29.68,North,351,20.0,27.0,97,0.45,,,0.59,Wunderground v.1.15,2013-01-13 06:55:00,
2013-01-13 02:00:00,54.2,53.4,29.68,North,9,23.0,23.0,97,0.40,,,0.65,Wunderground v.1.15,2013-01-13 07:00:00,
2013-01-13 02:05:00,54.5,53.7,29.68,North,5,20.0,23.0,97,0.14,,,0.67,Wunderground v.1.15,2013-01-13 07:05:00,
2013-01-13 02:10:00,54.3,53.5,29.69,NNW,340,15.0,15.0,97,0.13,,,0.68,Wunderground v.1.15,2013-01-13 07:10:00,
2013-01-13 02:20:00,53.2,52.4,29.71,North,350,15.0,15.0,97,0.06,,,0.68,Wunderground v.1.15,2013-01-13 07:20:00,
2013-01-13 02:25:00,52.9,52.1,29.73,NW,317,14.0,21.0,97,0.06,,,0.69,Wunderground v.1.15,2013-01-13 07:25:00,
2013-01-13 02:30:00,50.2,49.1,29.72,NNW,328,14.0,21.0,96,0.07,,,0.70,Wunderground v.1.15,2013-01-13 07:30:00,
2013-01-13 02:35:00,48.1,47.0,29.73,North,350,15.0,21.0,96,0.07,,,0.70,Wunderground v.1.15,2013-01-13 07:35:00,
2013-01-13 02:40:00,47.4,46.3,29.73,NNW,344,14.0,21.0,96,0.06,,,0.70,Wunderground v.1.15,2013-01-13 07:40:00,
2013-01-13 02:45:00,46.8,45.7,29.74,NW,321,14.0,21.0,96,0.04,,,0.70,Wunderground v.1.15,2013-01-13 07:45:00,
2013-01-13 02:55:00,46.6,45.8,29.74,North,360,13.0,21.0,97,0.00,,,0.71,Wunderground v.1.15,2013-01-13 07:55:00,
2013-01-13 03:00:00,46.7,45.9,29.74,North,5,11.0,21.0,97,0.00,,,0.71,Wunderground v.1.15,2013-01-13 08:00:00,
2013-01-13 03:05:00,46.6,45.8,29.74,North,360,11.0,21.0,97,0.00,,,0.71,Wunderground v.1.15,2013-01-13 08:05:00,
2013-01-13 03:10:00,46.7,45.9,29.74,North,360,11.0,11.0,97,0.00,,,0.72,Wunderground v.1.15,2013-01-13 08:10:00,
2013-01-13 03:15:00,46.7,45.9,29.73,North,5,10.0,21.0,97,0.00,,,0.72,Wunderground v.1.15,2013-01-13 08:15:00,
2013-01-13 03:25:00,46.9,46.1,29.73,North,355,9.0,21.0,97,0.04,,,0.73,Wunderground v.1.15,2013-01-13 08:25:00,
2013-01-13 03:30:00,46.5,45.7,29.74,North,5,10.0,10.0,97,0.04,,,0.73,Wunderground v.1.15,2013-01-13 08:30:00,
2013-01-13 03:35:00,46.6,45.8,29.74,North,5,8.0,21.0,97,0.04,,,0.73,Wunderground v.1.15,2013-01-13 08:35:00,
2013-01-13 03:40:00,46.6,45.8,29.74,North,5,6.0,6.0,97,0.04,,,0.74,Wunderground v.1.15,2013-01-13 08:40:00,
2013-01-13 03:45:00,46.7,45.9,29.76,North,5,5.0,21.0,97,0.04,,,0.74,Wunderground v.1.15,2013-01-13 08:45:00,
2013-01-13 03:50:00,46.8,46.0,29.78,West,268,5.0,21.0,97,0.08,,,0.75,Wunderground v.1.15,2013-01-13 08:50:00,
2013-01-13 04:00:00,46.0,45.2,29.78,WNW,289,9.0,21.0,97,0.13,,,0.77,Wunderground v.1.15,2013-01-13 09:00:00,
2013-01-13 04:05:00,45.6,44.8,29.78,WNW,286,11.0,21.0,97,0.14,,,0.79,Wunderground v.1.15,2013-01-13 09:05:00,
2013-01-13 04:10:00,45.1,44.3,29.81,West,277,14.0,21.0,97,0.10,,,0.79,Wunderground v.1.15,2013-01-13 09:10:00,
2013-01-13 04:15:00,44.2,43.1,29.81,WNW,297,17.0,21.0,96,0.06,,,0.79,Wunderground v.1.15,2013-01-13 09:15:00,
2013-01-13 04:20:00,43.9,42.8,29.80,NW,314,14.0,21.0,96,0.06,,,0.80,Wunderground v.1.15,2013-01-13 09:20:00,
2013-01-13 04:25:00,43.1,42.0,29.81,NNW,329,11.0,21.0,96,0.06,,,0.81,Wunderground v.1.15,2013-01-13 09:25:00,
2013-01-13 04:30:00,42.8,41.7,29.81,NNW,336,10.0,21.0,96,0.06,,,0.81,Wunderground v.1.15,2013-01-13 09:30:00,
2013-01-13 04:35:00,42.5,41.4,29.78,NNW,339,9.0,21.0,96,0.07,,,0.82,Wunderground v.1.15,2013-01-13 09:35:00,
2013-01-13 04:45:00,42.1,41.0,29.75,NNE,28,7.0,10.0,96,0.05,,,0.82,Wunderground v.1.15,2013-01-13 09:45:00,
2013-01-13 04:50:00,42.2,41.1,29.77,NNE,31,9.0,9.0,96,0.05,,,0.83,Wunderground v.1.15,2013-01-13 09:50:00,
2013-01-13 04:55:00,42.3,41.5,29.80,WNW,296,9.0,10.0,97,0.05,,,0.83,Wunderground v.1.15,2013-01-13 09:55:00,
2013-01-13 05:00:00,41.8,40.7,29.78,West,280,6.0,21.0,96,0.04,,,0.83,Wunderground v.1.15,2013-01-13 10:00:00,
2013-01-13 05:05:00,41.4,40.3,29.83,WNW,297,10.0,21.0,96,0.00,,,0.83,Wunderground v.1.15,2013-01-13 10:05:00,
2013-01-13 05:10:00,40.7,39.6,29.83,WNW,290,17.0,17.0,96,0.00,,,0.83,Wunderground v.1.15,2013-01-13 10:10:00,
2013-01-13 05:15:00,40.3,39.3,29.83,WNW,294,18.0,18.0,96,0.00,,,0.83,Wunderground v.1.15,2013-01-13 10:15:00,
2013-01-13 05:20:00,40.4,39.4,29.82,WNW,297,12.0,12.0,96,0.00,,,0.83,Wunderground v.1.15,2013-01-13 10:20:00,
2013-01-13 05:25:00,40.3,39.3,29.81,WNW,296,7.0,21.0,96,0.00,,,0.83,Wunderground v.1.15,2013-01-13 10:25:00,
2013-01-13 05:35:00,40.0,39.0,29.80,NNW,338,7.0,21.0,96,0.00,,,0.83,Wunderground v.1.15,2013-01-13 10:35:00,
2013-01-13 05:40:00,40.0,39.0,29.80,NNW,331,7.0,7.0,96,0.00,,,0.83,Wunderground v.1.15,2013-01-13 10:40:00,
2013-01-13 05:45:00,40.1,39.1,29.83,NW,317,8.0,9.0,96,0.00,,,0.83,Wunderground v.1.15,2013-01-13 10:45:00,
2013-01-13 05:50:00,40.1,39.1,29.82,NW,319,7.0,7.0,96,0.00,,,0.83,Wunderground v.1.15,2013-01-13 10:50:00,
2013-01-13 05:55:00,40.1,39.1,29.83,NW,317,6.0,21.0,96,0.00,,,0.83,Wunderground v.1.15,2013-01-13 10:55:00,
2013-01-13 06:00:00,40.1,39.1,29.84,NW,325,6.0,6.0,96,0.00,,,0.83,Wunderground v.1.15,2013-01-13 11:00:00,
2013-01-13 06:10:00,40.0,39.0,29.86,NNW,327,6.0,6.0,96,0.00,,,0.83,Wunderground v.1.15,2013-01-13 11:10:00,
2013-01-13 06:15:00,40.1,39.1,29.84,WNW,297,5.0,6.0,96,0.00,,,0.83,Wunderground v.1.15,2013-01-13 11:15:00,
2013-01-13 06:20:00,40.0,39.0,29.84,WNW,297,2.0,2.0,96,0.00,,,0.83,Wunderground v.1.15,2013-01-13 11:20:00,
2013-01-13 06:25:00,39.8,38.8,29.82,WNW,297,0.0,2.0,96,0.00,,,0.83,Wunderground v.1.15,2013-01-13 11:25:00,
2013-01-13 06:30:00,39.8,38.8,29.83,WNW,297,0.0,0.0,96,0.00,,,0.83,Wunderground v.1.15,2013-01-13 11:30:00,
2013-01-13 06:40:00,40.0,39.0,29.87,WNW,290,6.0,26.0,96,0.00,,,0.83,Wunderground v.1.15,2013-01-13 11:40:00,
2013-01-13 06:45:00,39.9,38.9,29.87,WNW,297,6.0,26.0,96,0.00,,,0.83,Wunderground v.1.15,2013-01-13 11:45:00,
2013-01-13 06:50:00,39.9,38.9,29.86,WNW,290,5.0,5.0,96,0.00,,,0.83,Wunderground v.1.15,2013-01-13 11:50:00,
2013-01-13 06:55:00,39.9,38.9,29.85,WNW,290,2.0,26.0,96,0.00,,,0.83,Wunderground v.1.15,2013-01-13 11:55:00,
2013-01-13 07:00:00,39.8,38.8,29.87,WNW,288,3.0,26.0,96,0.00,,,0.83,Wunderground v.1.15,2013-01-13 12:00:00,
2013-01-13 07:10:00,40.0,39.0,29.89,WNW,287,7.0,7.0,96,0.00,,,0.83,Wunderground v.1.15,2013-01-13 12:10:00,
2013-01-13 07:15:00,39.9,38.9,29.90,West,278,7.0,8.0,96,0.00,,,0.83,Wunderground v.1.15,2013-01-13 12:15:00,
2013-01-13 07:20:00,39.7,38.7,29.89,WNW,286,7.0,26.0,96,0.00,,,0.83,Wunderground v.1.15,2013-01-13 12:20:00,
2013-01-13 07:25:00,39.7,38.7,29.88,WNW,298,6.0,26.0,96,0.00,,,0.83,Wunderground v.1.15,2013-01-13 12:25:00,
2013-01-13 07:30:00,39.7,38.7,29.90,WNW,290,7.0,7.0,96,0.00,,,0.83,Wunderground v.1.15,2013-01-13 12:30:00,
2013-01-13 07:35:00,39.8,38.5,29.90,WNW,297,6.0,26.0,95,0.00,,,0.83,Wunderground v.1.15,2013-01-13 12:35:00,
2013-01-13 07:40:00,39.7,38.4,29.88,NNW,338,6.0,6.0,95,0.00,,,0.83,Wunderground v.1.15,2013-01-13 12:40:00,
2013-01-13 07:45:00,39.5,38.2,29.87,NNW,335,5.0,26.0,95,0.00,,,0.83,Wunderground v.1.15,2013-01-13 12:45:00,
2013-01-13 07:50:00,39.6,38.3,29.88,WNW,284,5.0,26.0,95,0.00,,,0.83,Wunderground v.1.15,2013-01-13 12:50:00,
2013-01-13 07:55:00,39.5,38.2,29.85,North,360,5.0,26.0,95,0.00,,,0.83,Wunderground v.1.15,2013-01-13 12:55:00,
2013-01-13 08:00:00,39.5,38.2,29.91,West,277,7.0,26.0,95,0.00,,,0.83,Wunderground v.1.15,2013-01-13 13:00:00,
2013-01-13 08:05:00,39.5,38.2,29.89,NNW,335,7.0,26.0,95,0.00,,,0.83,Wunderground v.1.15,2013-01-13 13:05:00,
2013-01-13 08:15:00,39.5,38.2,29.89,NNW,331,5.0,26.0,95,0.00,,,0.83,Wunderground v.1.15,2013-01-13 13:15:00,
2013-01-13 08:20:00,39.3,38.0,29.88,NNW,331,6.0,6.0,95,0.00,,,0.83,Wunderground v.1.15,2013-01-13 13:20:00,
2013-01-13 08:25:00,39.4,38.1,29.89,NW,319,5.0,26.0,95,0.00,,,0.83,Wunderground v.1.15,2013-01-13 13:25:00,
2013-01-13 08:30:00,39.3,38.0,29.88,NNW,340,5.0,26.0,95,0.00,,,0.83,Wunderground v.1.15,2013-01-13 13:30:00,
2013-01-13 08:35:00,39.3,38.0,29.88,North,349,6.0,26.0,95,0.00,,,0.83,Wunderground v.1.15,2013-01-13 13:35:00,
2013-01-13 08:40:00,39.4,38.1,29.88,NNW,334,6.0,26.0,95,0.00,,,0.83,Wunderground v.1.15,2013-01-13 13:40:00,
2013-01-13 08:50:00,39.5,38.2,29.91,NNW,327,5.0,5.0,95,0.00,,,0.83,Wunderground v.1.15,2013-01-13 13:50:00,
2013-01-13 08:55:00,39.6,38.3,29.90,NNW,331,5.0,26.0,95,0.00,,,0.83,Wunderground v.1.15,2013-01-13 13:55:00,
2013-01-13 09:00:00,39.6,38.3,29.90,NNW,334,5.0,26.0,95,0.00,,,0.83,Wunderground v.1.15,2013-01-13 14:00:00,
2013-01-13 09:05:00,39.6,38.3,29.91,NW,317,5.0,26.0,95,0.00,,,0.83,Wunderground v.1.15,2013-01-13 14:05:00,
2013-01-13 09:10:00,39.6,38.3,29.91,NW,311,4.0,26.0,95,0.00,,,0.83,Wunderground v.1.15,2013-01-13 14:10:00,
2013-01-13 09:15:00,39.4,38.1,29.91,WNW,289,5.0,26.0,95,0.00,,,0.83,Wunderground v.1.15,2013-01-13 14:15:00,
2013-01-13 09:20:00,39.5,38.2,29.91,WNW,292,6.0,26.0,95,0.00,,,0.83,Wunderground v.1.15,2013-01-13 14:20:00,
2013-01-13 09:25:00,39.3,38.0,29.91,NW,309,5.0,26.0,95,0.00,,,0.83,Wunderground v.1.15,2013-01-13 14:25:00,
2013-01-13 09:30:00,39.4,38.1,29.92,WNW,294,4.0,26.0,95,0.00,,,0.83,Wunderground v.1.15,2013-01-13 14:30:00,
2013-01-13 09:35:00,39.3,38.0,29.93,WNW,288,4.0,26.0,95,0.00,,,0.83,Wunderground v.1.15,2013-01-13 14:35:00,
2013-01-13 09:40:00,39.2,37.9,29.93,WNW,303,6.0,6.0,95,0.00,,,0.83,Wunderground v.1.15,2013-01-13 14:40:00,
2013-01-13 09:50:00,39.1,37.8,29.92,NW,312,5.0,5.0,95,0.00,,,0.83,Wunderground v.1.15,2013-01-13 14:50:00,
2013-01-13 09:55:00,39.0,37.7,29.92,WNW,302,4.0,26.0,95,0.00,,,0.83,Wunderground v.1.15,2013-01-13 14:55:00,
2013-01-13 10:00:00,39.0,37.7,29.92,WNW,286,4.0,26.0,95,0.00,,,0.83,Wunderground v.1.15,2013-01-13 15:00:00,
2013-01-13 10:05:00,38.8,37.5,29.93,WNW,292,5.0,26.0,95,0.00,,,0.83,Wunderground v.1.15,2013-01-13 15:05:00,
2013-01-13 10:10:00,38.8,37.5,29.93,WNW,294,6.0,6.0,95,0.00,,,0.83,Wunderground v.1.15,2013-01-13 15:10:00,
2013-01-13 10:15:00,38.8,37.5,29.93,WNW,296,5.0,26.0,95,0.00,,,0.83,Wunderground v.1.15,2013-01-13 15:15:00,
2013-01-13 10:25:00,38.8,37.5,29.93,WNW,288,3.0,6.0,95,0.00,,,0.84,Wunderground v.1.15,2013-01-13 15:25:00,
2013-01-13 10:30:00,38.8,37.5,29.94,WNW,287,5.0,26.0,95,0.00,,,0.84,Wunderground v.1.15,2013-01-13 15:30:00,
2013-01-13 10:35:00,38.7,37.4,29.94,WNW,285,7.0,26.0,95,0.00,,,0.84,Wunderground v.1.15,2013-01-13 15:35:00,
2013-01-13 10:40:00,38.6,37.3,29.93,WNW,300,6.0,26.0,95,0.00,,,0.84,Wunderground v.1.15,2013-01-13 15:40:00,
2013-01-13 10:45:00,38.6,37.3,29.92,NW,306,5.0,26.0,95,0.00,,,0.84,Wunderground v.1.15,2013-01-13 15:45:00,
2013-01-13 10:55:00,38.5,37.2,29.91,NW,321,3.0,26.0,95,0.00,,,0.84,Wunderground v.1.15,2013-01-13 15:55:00,
2013-01-13 11:00:00,38.4,37.1,29.91,NNW,334,4.0,26.0,95,0.00,,,0.84,Wunderground v.1.15,2013-01-13 16:00:00,
2013-01-13 11:05:00,38.5,37.2,29.91,NNW,333,4.0,26.0,95,0.00,,,0.84,Wunderground v.1.15,2013-01-13 16:05:00,
2013-01-13 11:10:00,38.6,37.3,29.92,NNW,333,3.0,26.0,95,0.00,,,0.84,Wunderground v.1.15,2013-01-13 16:10:00,
2013-01-13 11:15:00,38.4,37.1,29.92,WNW,294,4.0,26.0,95,0.00,,,0.84,Wunderground v.1.15,2013-01-13 16:15:00,
2013-01-13 11:20:00,38.5,37.2,29.93,WNW,292,6.0,6.0,95,0.00,,,0.84,Wunderground v.1.15,2013-01-13 16:20:00,
2013-01-13 11:30:00,38.7,37.4,29.94,WNW,291,7.0,7.0,95,0.00,,,0.84,Wunderground v.1.15,2013-01-13 16:30:00,
2013-01-13 11:35:00,38.6,37.3,29.94,NW,309,6.0,26.0,95,0.00,,,0.84,Wunderground v.1.15,2013-01-13 16:35:00,
2013-01-13 11:40:00,38.5,37.2,29.93,WNW,293,6.0,26.0,95,0.00,,,0.84,Wunderground v.1.15,2013-01-13 16:40:00,
2013-01-13 11:45:00,38.4,37.1,29.93,WNW,298,6.0,26.0,95,0.00,,,0.84,Wunderground v.1.15,2013-01-13 16:45:00,
2013-01-13 11:50:00,38.4,37.1,29.93,WNW,295,8.0,26.0,95,0.00,,,0.84,Wunderground v.1.15,2013-01-13 16:50:00,
2013-01-13 12:00:00,38.5,37.2,29.93,WNW,294,9.0,26.0,95,0.00,,,0.84,Wunderground v.1.15,2013-01-13 17:00:00,
2013-01-13 12:05:00,38.4,37.1,29.93,WNW,295,8.0,26.0,95,0.00,,,0.84,Wunderground v.1.15,2013-01-13 17:05:00,
2013-01-13 12:10:00,38.4,37.1,29.93,NW,306,8.0,8.0,95,0.00,,,0.84,Wunderground v.1.15,2013-01-13 17:10:00,
2013-01-13 12:15:00,38.4,37.1,29.91,NW,326,6.0,9.0,95,0.00,,,0.84,Wunderground v.1.15,2013-01-13 17:15:00,
2013-01-13 12:20:00,38.3,37.0,29.91,WNW,290,5.0,26.0,95,0.00,,,0.84,Wunderground v.1.15,2013-01-13 17:20:00,
2013-01-13 12:25:00,38.4,37.1,29.92,WNW,296,5.0,26.0,95,0.00,,,0.84,Wunderground v.1.15,2013-01-13 17:25:00,
2013-01-13 12:35:00,38.4,37.1,29.92,WNW,288,6.0,26.0,95,0.00,,,0.84,Wunderground v.1.15,2013-01-13 17:35:00,
2013-01-13 12:40:00,38.3,37.0,29.92,WNW,302,7.0,7.0,95,0.00,,,0.84,Wunderground v.1.15,2013-01-13 17:40:00,
2013-01-13 12:45:00,38.2,36.9,29.91,NNW,333,6.0,26.0,95,0.00,,,0.84,Wunderground v.1.15,2013-01-13 17:45:00,
2013-01-13 12:50:00,38.3,37.0,29.90,NNW,328,5.0,5.0,95,0.00,,,0.84,Wunderground v.1.15,2013-01-13 17:50:00,
2013-01-13 12:55:00,38.3,37.0,29.89,NNW,332,4.0,26.0,95,0.00,,,0.84,Wunderground v.1.15,2013-01-13 17:55:00,
2013-01-13 13:00:00,38.3,37.0,29.88,NNW,338,4.0,26.0,95,0.00,,,0.84,Wunderground v.1.15,2013-01-13 18:00:00,
2013-01-13 13:05:00,38.2,36.9,29.88,NNW,343,4.0,26.0,95,0.00,,,0.84,Wunderground v.1.15,2013-01-13 18:05:00,
2013-01-13 13:10:00,38.1,36.8,29.87,NNW,345,5.0,26.0,95,0.00,,,0.84,Wunderground v.1.15,2013-01-13 18:10:00,
2013-01-13 13:15:00,38.2,36.9,29.85,North,355,6.0,26.0,95,0.00,,,0.84,Wunderground v.1.15,2013-01-13 18:15:00,
2013-01-13 13:20:00,38.2,36.9,29.83,NE,36,7.0,26.0,95,0.00,,,0.84,Wunderground v.1.15,2013-01-13 18:20:00,
2013-01-13 13:25:00,38.4,37.1,29.84,NE,38,8.0,26.0,95,0.00,,,0.84,Wunderground v.1.15,2013-01-13 18:25:00,
2013-01-13 13:35:00,38.0,36.7,29.84,North,5,6.0,26.0,95,0.00,,,0.84,Wunderground v.1.15,2013-01-13 18:35:00,
2013-01-13 13:40:00,38.2,36.9,29.84,NNE,22,6.0,26.0,95,0.00,,,0.84,Wunderground v.1.15,2013-01-13 18:40:00,
2013-01-13 13:45:00,38.3,37.0,29.84,North,9,6.0,26.0,95,0.00,,,0.84,Wunderground v.1.15,2013-01-13 18:45:00,
2013-01-13 13:50:00,38.3,37.0,29.84,NNE,25,6.0,26.0,95,0.00,,,0.84,Wunderground v.1.15,2013-01-13 18:50:00,
2013-01-13 13:55:00,38.4,37.1,29.85,North,5,6.0,26.0,95,0.00,,,0.84,Wunderground v.1.15,2013-01-13 18:55:00,
2013-01-13 14:00:00,38.3,37.0,29.85,North,5,5.0,5.0,95,0.00,,,0.84,Wunderground v.1.15,2013-01-13 19:00:00,
2013-01-13 14:10:00,38.7,37.4,29.87,WNW,295,5.0,26.0,95,0.00,,,0.84,Wunderground v.1.15,2013-01-13 19:10:00,
2013-01-13 14:15:00,38.6,37.3,29.90,West,280,7.0,26.0,95,0.00,,,0.84,Wunderground v.1.15,2013-01-13 19:15:00,
2013-01-13 14:20:00,38.5,37.2,29.91,WNW,296,12.0,26.0,95,0.00,,,0.85,Wunderground v.1.15,2013-01-13 19:20:00,
2013-01-13 14:25:00,38.0,36.7,29.92,WNW,289,15.0,26.0,95,0.07,,,0.86,Wunderground v.1.15,2013-01-13 19:25:00,
2013-01-13 14:30:00,37.4,36.1,29.94,West,271,18.0,18.0,95,0.14,,,0.87,Wunderground v.1.15,2013-01-13 19:30:00,
2013-01-13 14:40:00,36.6,35.3,29.92,WNW,285,19.0,19.0,95,0.10,,,0.89,Wunderground v.1.15,2013-01-13 19:40:00,
2013-01-13 14:45:00,36.2,34.9,29.93,WNW,290,19.0,26.0,95,0.51,,,0.92,Wunderground v.1.15,2013-01-13 19:45:00,
2013-01-13 14:50:00,35.9,34.6,29.94,WNW,290,18.0,18.0,95,0.11,,,0.93,Wunderground v.1.15,2013-01-13 19:50:00,
2013-01-13 14:55:00,35.7,34.4,29.95,WNW,282,17.0,26.0,95,0.19,,,0.95,Wunderground v.1.15,2013-01-13 19:55:00,
2013-01-13 15:00:00,35.6,34.3,29.95,WNW,292,16.0,16.0,95,0.26,,,0.97,Wunderground v.1.15,2013-01-13 20:00:00,
2013-01-13 15:05:00,35.1,33.8,29.95,WNW,292,15.0,26.0,95,0.19,,,0.98,Wunderground v.1.15,2013-01-13 20:05:00,
2013-01-13 15:10:00,35.0,33.7,29.96,WNW,296,15.0,26.0,95,0.16,,,1.00,Wunderground v.1.15,2013-01-13 20:10:00,
2013-01-13 15:15:00,34.9,33.6,29.96,WNW,291,14.0,26.0,95,0.15,,,1.01,Wunderground v.1.15,2013-01-13 20:15:00,
2013-01-13 15:20:00,35.0,33.7,29.96,WNW,288,13.0,26.0,95,0.12,,,1.02,Wunderground v.1.15,2013-01-13 20:20:00,
2013-01-13 15:25:00,34.9,33.6,29.96,NW,306,11.0,26.0,95,0.13,,,1.03,Wunderground v.1.15,2013-01-13 20:25:00,
2013-01-13 15:30:00,34.5,33.2,29.97,WNW,286,13.0,26.0,95,0.11,,,1.04,Wunderground v.1.15,2013-01-13 20:30:00,
2013-01-13 15:35:00,34.3,33.0,29.98,West,277,14.0,26.0,95,0.11,,,1.05,Wunderground v.1.15,2013-01-13 20:35:00,
2013-01-13 15:40:00,34.3,33.0,29.97,NW,304,14.0,14.0,95,0.16,,,1.06,Wunderground v.1.15,2013-01-13 20:40:00,
2013-01-13 15:45:00,34.1,32.8,29.97,WNW,301,13.0,26.0,95,0.13,,,1.07,Wunderground v.1.15,2013-01-13 20:45:00,
2013-01-13 15:50:00,34.2,32.9,29.96,WNW,286,12.0,26.0,95,0.12,,,1.08,Wunderground v.1.15,2013-01-13 20:50:00,
2013-01-13 15:55:00,34.4,33.1,29.97,NNW,343,10.0,26.0,95,0.12,,,1.09,Wunderground v.1.15,2013-01-13 20:55:00,
2013-01-13 16:00:00,34.4,33.1,29.97,WNW,292,8.0,26.0,95,0.07,,,1.10,Wunderground v.1.15,2013-01-13 21:00:00,
2013-01-13 16:05:00,34.3,33.0,29.97,WNW,296,9.0,26.0,95,0.07,,,1.10,Wunderground v.1.15,2013-01-13 21:05:00,
2013-01-13 16:10:00,34.2,32.9,29.97,NW,325,9.0,9.0,95,0.07,,,1.11,Wunderground v.1.15,2013-01-13 21:10:00,
2013-01-13 16:20:00,34.0,32.7,29.96,NNW,338,7.0,7.0,95,0.06,,,1.12,Wunderground v.1.15,2013-01-13 21:20:00,
2013-01-13 16:25:00,34.2,32.9,29.96,NNW,336,8.0,10.0,95,0.06,,,1.12,Wunderground v.1.15,2013-01-13 21:25:00,
2013-01-13 16:30:00,34.1,32.8,29.95,NNW,332,8.0,8.0,95,0.05,,,1.12,Wunderground v.1.15,2013-01-13 21:30:00,
2013-01-13 16:35:00,34.1,32.8,29.95,NNW,336,9.0,9.0,95,0.04,,,1.13,Wunderground v.1.15,2013-01-13 21:35:00,
2013-01-13 16:40:00,34.2,32.9,29.96,NNW,333,10.0,10.0,95,0.04,,,1.13,Wunderground v.1.15,2013-01-13 21:40:00,
2013-01-13 16:50:00,33.9,32.4,29.96,NW,326,8.0,26.0,94,0.04,,,1.13,Wunderground v.1.15,2013-01-13 21:50:00,
2013-01-13 16:55:00,33.7,32.2,29.95,NNW,333,10.0,26.0,94,0.00,,,1.13,Wunderground v.1.15,2013-01-13 21:55:00,
2013-01-13 17:00:00,33.7,32.2,29.96,WNW,288,9.0,9.0,94,0.00,,,1.13,Wunderground v.1.15,2013-01-13 22:00:00,
2013-01-13 17:05:00,33.8,32.3,29.97,NNW,335,7.0,11.0,94,0.00,,,1.13,Wunderground v.1.15,2013-01-13 22:05:00,
2013-01-13 17:10:00,33.8,32.3,29.98,NW,322,6.0,6.0,94,0.00,,,1.13,Wunderground v.1.15,2013-01-13 22:10:00,
2013-01-13 17:15:00,33.8,32.3,29.98,WNW,288,6.0,26.0,94,0.00,,,1.13,Wunderground v.1.15,2013-01-13 22:15:00,
2013-01-13 17:25:00,33.7,32.2,30.00,WNW,295,7.0,26.0,94,0.00,,,1.13,Wunderground v.1.15,2013-01-13 22:25:00,
2013-01-13 17:30:00,33.5,32.0,30.00,WNW,296,7.0,26.0,94,0.00,,,1.13,Wunderground v.1.15,2013-01-13 22:30:00,
2013-01-13 17:35:00,33.5,32.0,30.01,WNW,288,10.0,26.0,94,0.00,,,1.13,Wunderground v.1.15,2013-01-13 22:35:00,
2013-01-13 17:40:00,33.5,32.0,30.02,WNW,297,11.0,11.0,94,0.00,,,1.13,Wunderground v.1.15,2013-01-13 22:40:00,
2013-01-13 17:45:00,33.5,32.0,30.01,WNW,296,9.0,26.0,94,0.00,,,1.13,Wunderground v.1.15,2013-01-13 22:45:00,
2013-01-13 17:50:00,33.4,31.9,30.01,WNW,294,7.0,7.0,94,0.00,,,1.13,Wunderground v.1.15,2013-01-13 22:50:00,
2013-01-13 17:55:00,33.6,32.1,30.01,WNW,293,7.0,8.0,94,0.00,,,1.13,Wunderground v.1.15,2013-01-13 22:55:00,
2013-01-13 18:00:00,33.4,31.9,30.01,West,281,9.0,26.0,94,0.00,,,1.13,Wunderground v.1.15,2013-01-13 23:00:00,
2013-01-13 18:05:00,33.2,31.7,30.01,NNW,335,11.0,26.0,94,0.00,,,1.13,Wunderground v.1.15,2013-01-13 23:05:00,
2013-01-13 18:10:00,33.3,31.8,30.02,WNW,295,12.0,12.0,94,0.00,,,1.13,Wunderground v.1.15,2013-01-13 23:10:00,
2013-01-13 18:15:00,33.1,31.6,30.03,West,278,11.0,26.0,94,0.00,,,1.13,Wunderground v.1.15,2013-01-13 23:15:00,
2013-01-13 18:25:00,33.0,31.5,30.03,WNW,288,13.0,26.0,94,0.00,,,1.13,Wunderground v.1.15,2013-01-13 23:25:00,
2013-01-13 18:30:00,33.0,31.5,30.04,WNW,286,13.0,26.0,94,0.00,,,1.13,Wunderground v.1.15,2013-01-13 23:30:00,
2013-01-13 18:35:00,33.2,31.7,30.04,WNW,292,13.0,26.0,94,0.00,,,1.13,Wunderground v.1.15,2013-01-13 23:35:00,
2013-01-13 18:40:00,33.1,31.6,30.04,West,269,12.0,26.0,94,0.00,,,1.13,Wunderground v.1.15,2013-01-13 23:40:00,
2013-01-13 18:45:00,33.1,31.6,30.03,WNW,290,12.0,26.0,94,0.00,,,1.13,Wunderground v.1.15,2013-01-13 23:45:00,
2013-01-13 18:50:00,33.1,31.6,30.03,WNW,297,12.0,26.0,94,0.00,,,1.13,Wunderground v.1.15,2013-01-13 23:50:00,
2013-01-13 19:00:00,33.0,31.5,30.04,West,275,13.0,13.0,94,0.00,,,1.13,Wunderground v.1.15,2013-01-14 00:00:00,
2013-01-13 19:05:00,33.1,31.6,30.05,WNW,286,14.0,18.0,94,0.00,,,1.13,Wunderground v.1.15,2013-01-14 00:05:00,
2013-01-13 19:10:00,33.1,31.6,30.05,WNW,291,14.0,14.0,94,0.00,,,1.13,Wunderground v.1.15,2013-01-14 00:10:00,
2013-01-13 19:15:00,32.9,31.4,30.06,West,280,14.0,20.0,94,0.00,,,1.13,Wunderground v.1.15,2013-01-14 00:15:00,
2013-01-13 19:20:00,32.3,30.5,30.05,WNW,288,15.0,26.0,93,0.00,,,1.13,Wunderground v.1.15,2013-01-14 00:20:00,
2013-01-13 19:30:00,31.7,30.2,30.06,West,277,16.0,16.0,94,0.00,,,1.13,Wunderground v.1.15,2013-01-14 00:30:00,
2013-01-13 19:35:00,31.7,30.2,30.06,WNW,298,16.0,26.0,94,0.00,,,1.13,Wunderground v.1.15,2013-01-14 00:35:00,
2013-01-13 19:40:00,31.1,29.6,30.07,West,281,16.0,26.0,94,0.00,,,1.13,Wunderground v.1.15,2013-01-14 00:40:00,
2013-01-13 19:45:00,30.8,29.3,30.08,WNW,289,18.0,26.0,94,0.00,,,1.13,Wunderground v.1.15,2013-01-14 00:45:00,
2013-01-13 19:50:00,30.6,28.8,30.08,WNW,289,17.0,17.0,93,0.00,,,1.13,Wunderground v.1.15,2013-01-14 00:50:00,
2013-01-13 19:55:00,30.5,28.7,30.08,WNW,289,18.0,20.0,93,0.00,,,1.13,Wunderground v.1.15,2013-01-14 00:55:00,
2013-01-13 20:05:00,30.5,28.7,30.09,WNW,289,16.0,20.0,93,0.00,,,1.13,Wunderground v.1.15,2013-01-14 01:05:00,
2013-01-13 20:10:00,30.4,28.6,30.09,WNW,289,16.0,26.0,93,0.00,,,1.13,Wunderground v.1.15,2013-01-14 01:10:00,
2013-01-13 20:15:00,29.9,28.1,30.09,WNW,289,17.0,26.0,93,0.00,,,1.13,Wunderground v.1.15,2013-01-14 01:15:00,
2013-01-13 20:20:00,29.9,28.1,30.10,WNW,289,17.0,17.0,93,0.00,,,1.13,Wunderground v.1.15,2013-01-14 01:20:00,
2013-01-13 20:25:00,29.4,27.6,30.10,WNW,289,16.0,22.0,93,0.00,,,1.13,Wunderground v.1.15,2013-01-14 01:25:00,
2013-01-13 20:35:00,28.8,27.0,30.11,WNW,289,20.0,26.0,93,0.00,,,1.13,Wunderground v.1.15,2013-01-14 01:35:00,
2013-01-13 20:40:00,28.7,26.7,30.11,WNW,289,18.0,26.0,92,0.00,,,1.13,Wunderground v.1.15,2013-01-14 01:40:00,
2013-01-13 20:45:00,28.5,26.5,30.11,WNW,289,17.0,26.0,92,0.00,,,1.13,Wunderground v.1.15,2013-01-14 01:45:00,
2013-01-13 20:50:00,28.3,26.3,30.11,WNW,289,17.0,17.0,92,0.00,,,1.13,Wunderground v.1.15,2013-01-14 01:50:00,
2013-01-13 20:55:00,28.1,26.1,30.12,WNW,289,17.0,26.0,92,0.00,,,1.13,Wunderground v.1.15,2013-01-14 01:55:00,
2013-01-13 21:00:00,28.2,26.2,30.12,WNW,289,16.0,16.0,92,0.00,,,1.13,Wunderground v.1.15,2013-01-14 02:00:00,
2013-01-13 21:10:00,27.9,25.9,30.12,WNW,289,15.0,26.0,92,0.00,,,1.13,Wunderground v.1.15,2013-01-14 02:10:00,
2013-01-13 21:15:00,27.8,25.8,30.13,WNW,289,16.0,26.0,92,0.00,,,1.13,Wunderground v.1.15,2013-01-14 02:15:00,
2013-01-13 21:20:00,27.9,25.6,30.13,WNW,289,16.0,26.0,91,0.00,,,1.13,Wunderground v.1.15,2013-01-14 02:20:00,
2013-01-13 21:25:00,27.7,25.4,30.13,WNW,289,15.0,26.0,91,0.00,,,1.13,Wunderground v.1.15,2013-01-14 02:25:00,
2013-01-13 21:30:00,27.8,25.5,30.13,WNW,289,16.0,16.0,91,0.00,,,1.13,Wunderground v.1.15,2013-01-14 02:30:00,
2013-01-13 21:35:00,27.3,24.8,30.13,WNW,289,17.0,19.0,90,0.00,,,1.13,Wunderground v.1.15,2013-01-14 02:35:00,
2013-01-13 21:45:00,26.8,24.0,30.14,WNW,289,18.0,20.0,89,0.00,,,1.13,Wunderground v.1.15,2013-01-14 02:45:00,
2013-01-13 21:50:00,26.8,24.3,30.14,WNW,289,17.0,17.0,90,0.00,,,1.13,Wunderground v.1.15,2013-01-14 02:50:00,
2013-01-13 21:55:00,26.2,23.4,30.15,WNW,289,17.0,22.0,89,0.00,,,1.13,Wunderground v.1.15,2013-01-14 02:55:00,
2013-01-13 22:00:00,25.7,22.6,30.15,WNW,289,18.0,18.0,88,0.00,,,1.13,Wunderground v.1.15,2013-01-14 03:00:00,
2013-01-13 22:05:00,25.4,22.6,30.15,WNW,289,17.0,21.0,89,0.00,,,1.13,Wunderground v.1.15,2013-01-14 03:05:00,
2013-01-13 22:10:00,25.3,22.5,30.15,WNW,289,16.0,26.0,89,0.00,,,1.13,Wunderground v.1.15,2013-01-14 03:10:00,
2013-01-13 22:15:00,25.4,22.3,30.15,WNW,289,15.0,26.0,88,0.00,,,1.13,Wunderground v.1.15,2013-01-14 03:15:00,
2013-01-13 22:20:00,25.4,22.3,30.16,WNW,289,13.0,13.0,88,0.00,,,1.13,Wunderground v.1.15,2013-01-14 03:20:00,
2013-01-13 22:25:00,25.0,21.7,30.16,WNW,289,14.0,14.0,87,0.00,,,1.13,Wunderground v.1.15,2013-01-14 03:25:00,
2013-01-13 22:30:00,24.7,21.7,30.17,WNW,289,15.0,15.0,88,0.00,,,1.13,Wunderground v.1.15,2013-01-14 03:30:00,
2013-01-13 22:35:00,24.6,21.6,30.17,WNW,289,15.0,20.0,88,0.00,,,1.13,Wunderground v.1.15,2013-01-14 03:35:00,
2013-01-13 22:45:00,24.5,21.5,30.18,WNW,289,17.0,17.0,88,0.00,,,1.13,Wunderground v.1.15,2013-01-14 03:45:00,
2013-01-13 22:50:00,24.2,20.9,30.18,WNW,289,16.0,26.0,87,0.00,,,1.13,Wunderground v.1.15,2013-01-14 03:50:00,
2013-01-13 22:55:00,24.1,20.8,30.18,WNW,289,17.0,26.0,87,0.00,,,1.13,Wunderground v.1.15,2013-01-14 03:55:00,
2013-01-13 23:00:00,24.0,20.7,30.19,WNW,289,18.0,18.0,87,0.00,,,1.13,Wunderground v.1.15,2013-01-14 04:00:00,
2013-01-13 23:05:00,23.8,20.5,30.19,WNW,289,18.0,26.0,87,0.00,,,1.13,Wunderground v.1.15,2013-01-14 04:05:00,
2013-01-13 23:15:00,23.6,20.3,30.20,WNW,289,16.0,21.0,87,0.00,,,1.13,Wunderground v.1.15,2013-01-14 04:15:00,
2013-01-13 23:20:00,23.7,20.4,30.20,WNW,289,17.0,26.0,87,0.00,,,1.13,Wunderground v.1.15,2013-01-14 04:20:00,
2013-01-13 23:25:00,23.9,20.9,30.20,WNW,289,16.0,26.0,88,0.00,,,1.13,Wunderground v.1.15,2013-01-14 04:25:00,
2013-01-13 23:30:00,23.8,20.8,30.21,WNW,289,15.0,26.0,88,0.00,,,1.13,Wunderground v.1.15,2013-01-14 04:30:00,
2013-01-13 23:35:00,23.6,20.3,30.21,WNW,289,15.0,26.0,87,0.00,,,1.13,Wunderground v.1.15,2013-01-14 04:35:00,
2013-01-13 23:40:00,23.1,19.8,30.21,WNW,289,16.0,26.0,87,0.00,,,1.13,Wunderground v.1.15,2013-01-14 04:40:00,
2013-01-13 23:50:00,22.8,19.8,30.22,WNW,289,17.0,26.0,88,0.00,,,1.13,Wunderground v.1.15,2013-01-14 04:50:00,
2013-01-13 23:55:00,23.0,20.0,30.22,WNW,289,16.0,26.0,88,0.00,,,1.13,Wunderground v.1.15,2013-01-14 04:55:00,